Time;durP1;ratioP1;P1;durP2;ratioP2;P2;SDS_P1;SDS_P2;PMS_P1;PMS_P2;Temp;Humidity;BMP_temperature;BMP_pressure;BME280_temperature;BME280_humidity;BME280_pressure;Samples;Min_cycle;Max_cycle;Signal;HPM_P1;HPM_P2
2023/01/27 00:01:27;;;;;;;108.22;41.30;;;;;;;1.12;100.00;100773.81;5053797;28;20047;-71
2023/01/27 00:03:52;;;;;;;100.25;38.67;;;;;;;1.09;100.00;100762.63;5051778;28;20029;-71
2023/01/27 00:06:18;;;;;;;99.35;39.80;;;;;;;1.14;100.00;100770.59;5053439;28;20033;-71
2023/01/27 00:08:43;;;;;;;96.72;38.30;;;;;;;1.09;100.00;100760.59;5053310;28;20025;-70
2023/01/27 00:13:57;;;;;;;97.78;35.10;;;;;;;1.04;100.00;100761.84;5051589;28;20136;-71
2023/01/27 00:16:22;;;;;;;90.63;35.55;;;;;;;1.06;100.00;100761.41;5052970;28;20112;-72
2023/01/27 00:18:48;;;;;;;103.75;37.90;;;;;;;1.08;100.00;100772.28;5053069;28;20032;-71
2023/01/27 00:26:41;;;;;;;93.60;34.53;;;;;;;0.93;100.00;100761.16;5052809;28;20095;-71
2023/01/27 00:29:07;;;;;;;93.10;33.88;;;;;;;0.86;100.00;100766.06;5054199;28;20417;-70
2023/01/27 00:34:16;;;;;;;93.05;34.50;;;;;;;0.66;100.00;100770.63;5054864;28;20036;-70
2023/01/27 00:36:42;;;;;;;95.25;37.05;;;;;;;0.66;100.00;100771.44;5065492;28;20044;-70
2023/01/27 00:39:09;;;;;;;93.68;35.50;;;;;;;0.62;100.00;100765.03;5075029;28;20028;-71
2023/01/27 00:41:35;;;;;;;99.43;35.97;;;;;;;0.67;100.00;100775.81;5074812;28;20028;-72
2023/01/27 00:44:01;;;;;;;95.38;37.63;;;;;;;0.70;100.00;100774.22;5056472;28;20038;-71
2023/01/27 00:46:26;;;;;;;93.85;35.55;;;;;;;0.68;100.00;100791.50;5074365;28;20081;-71
2023/01/27 00:48:52;;;;;;;107.78;37.65;;;;;;;0.69;100.00;100792.28;5056907;28;20016;-75
2023/01/27 00:51:18;;;;;;;96.35;33.75;;;;;;;0.66;100.00;100781.88;5074219;28;20498;-70
2023/01/27 00:53:43;;;;;;;108.18;34.00;;;;;;;0.73;100.00;100788.25;5074646;28;20377;-71
2023/01/27 00:56:09;;;;;;;108.60;36.72;;;;;;;0.75;100.00;100785.81;5074229;28;20420;-71
2023/01/27 00:58:35;;;;;;;105.75;33.78;;;;;;;0.67;100.00;100784.25;5074166;28;20021;-70
2023/01/27 01:01:02;;;;;;;102.18;33.45;;;;;;;0.63;100.00;100791.94;5056274;28;20468;-71
2023/01/27 01:03:32;;;;;;;104.93;33.20;;;;;;;0.60;100.00;100796.38;5074405;28;20024;-72
2023/01/27 01:05:59;;;;;;;104.97;35.13;;;;;;;0.57;100.00;100797.19;5073955;28;20469;-72
2023/01/27 01:08:25;;;;;;;115.55;37.58;;;;;;;0.60;100.00;100799.19;5073920;28;20032;-70
2023/01/27 01:10:50;;;;;;;115.00;37.65;;;;;;;0.61;100.00;100792.34;5073790;28;20492;-70
2023/01/27 01:13:16;;;;;;;102.63;36.30;;;;;;;0.50;100.00;100788.81;5073776;28;20047;-70
2023/01/27 01:15:42;;;;;;;114.53;37.03;;;;;;;0.52;100.00;100794.81;5074172;28;20027;-72
2023/01/27 01:18:09;;;;;;;115.22;37.60;;;;;;;0.56;100.00;100792.81;5073815;28;20024;-71
2023/01/27 01:20:39;;;;;;;115.15;36.13;;;;;;;0.59;100.00;100796.78;5073675;28;20466;-69
2023/01/27 01:23:05;;;;;;;123.55;40.05;;;;;;;0.57;100.00;100794.38;5055938;28;20020;-71
2023/01/27 01:25:30;;;;;;;129.27;36.95;;;;;;;0.60;100.00;100792.78;5073720;28;20024;-69
2023/01/27 01:27:56;;;;;;;119.13;37.38;;;;;;;0.66;100.00;100782.69;5073786;28;20024;-71
2023/01/27 01:30:24;;;;;;;107.43;37.47;;;;;;;0.73;100.00;100790.25;5074234;28;20055;-70
2023/01/27 01:32:50;;;;;;;111.50;37.05;;;;;;;0.77;100.00;100779.78;5073319;28;20027;-70
2023/01/27 01:35:16;;;;;;;101.07;35.22;;;;;;;0.78;100.00;100782.19;5073588;28;20020;-69
2023/01/27 01:37:41;;;;;;;118.93;36.67;;;;;;;0.77;100.00;100776.97;5073355;28;20047;-70
2023/01/27 01:40:08;;;;;;;110.00;34.55;;;;;;;0.69;100.00;100784.66;5073579;28;20038;-70
2023/01/27 01:42:53;;;;;;;114.22;35.47;;;;;;;0.71;100.00;100782.25;5055489;28;20032;-71
2023/01/27 01:45:31;;;;;;;110.72;36.65;;;;;;;0.68;100.00;100777.44;5073615;28;20036;-71
2023/01/27 01:48:25;;;;;;;108.38;35.45;;;;;;;0.58;100.00;100778.31;5073370;28;20488;-70
2023/01/27 01:50:55;;;;;;;110.40;38.22;;;;;;;0.63;100.00;100779.88;5070942;28;20118;-71
2023/01/27 01:53:28;;;;;;;103.30;37.75;;;;;;;0.71;100.00;100782.25;5073230;28;20469;-72
2023/01/27 01:55:55;;;;;;;101.55;35.38;;;;;;;0.77;100.00;100774.94;5091608;28;20137;-70
2023/01/27 01:58:21;;;;;;;115.68;39.28;;;;;;;0.86;100.00;100774.50;5092719;28;20024;-69
2023/01/27 02:00:46;;;;;;;116.20;39.28;;;;;;;0.91;100.00;100772.00;5093370;28;20020;-70
2023/01/27 02:03:12;;;;;;;123.82;41.20;;;;;;;0.90;100.00;100778.06;5093376;28;20330;-70
2023/01/27 02:05:40;;;;;;;116.13;38.63;;;;;;;0.92;100.00;100784.88;5091934;28;20024;-70
2023/01/27 02:08:10;;;;;;;101.07;36.38;;;;;;;0.95;100.00;100786.06;5093496;28;20423;-71
2023/01/27 02:10:36;;;;;;;109.25;38.05;;;;;;;0.98;100.00;100782.41;5075736;28;20059;-70
2023/01/27 02:13:01;;;;;;;116.38;37.63;;;;;;;0.98;100.00;100786.03;5093290;28;20103;-71
2023/01/27 02:15:28;;;;;;;111.78;38.20;;;;;;;1.00;100.00;100785.63;5093368;28;20027;-70
2023/01/27 02:17:54;;;;;;;116.63;38.33;;;;;;;0.94;100.00;100779.63;5075534;28;20069;-70
2023/01/27 02:20:34;;;;;;;107.68;36.03;;;;;;;1.02;100.00;100786.78;5074776;28;20410;-71
2023/01/27 02:23:23;;;;;;;106.57;38.70;;;;;;;1.02;100.00;100786.78;5093105;28;20020;-71
2023/01/27 02:26:15;;;;;;;112.20;35.53;;;;;;;1.06;100.00;100785.97;5093020;28;20115;-70
2023/01/27 02:28:41;;;;;;;110.05;39.00;;;;;;;1.09;100.00;100782.31;5093295;28;20384;-71
2023/01/27 02:31:06;;;;;;;105.85;38.72;;;;;;;1.11;100.00;100786.28;5075139;28;20024;-71
2023/01/27 02:33:32;;;;;;;116.00;37.42;;;;;;;1.09;100.00;100787.94;5093708;28;20028;-69
2023/01/27 02:36:10;;;;;;;119.65;40.42;;;;;;;1.07;100.00;100790.38;5092909;28;20071;-71
2023/01/27 02:38:41;;;;;;;106.35;39.42;;;;;;;1.02;100.00;100783.97;5075152;28;20397;-71
2023/01/27 02:41:31;;;;;;;111.07;39.45;;;;;;;0.97;100.00;100789.25;5075118;28;20060;-69
2023/01/27 02:43:56;;;;;;;116.93;36.75;;;;;;;0.92;100.00;100779.25;5093002;28;20016;-69
2023/01/27 02:46:22;;;;;;;115.95;38.38;;;;;;;0.93;100.00;100780.03;5093036;28;20026;-69
2023/01/27 02:48:47;;;;;;;110.68;37.70;;;;;;;0.92;100.00;100782.06;5093312;28;20066;-70
2023/01/27 02:51:13;;;;;;;110.93;36.83;;;;;;;0.93;100.00;100782.84;5092990;28;20028;-70
2023/01/27 02:53:39;;;;;;;136.40;38.90;;;;;;;0.90;100.00;100784.50;5075005;28;20148;-70
2023/01/27 02:56:05;;;;;;;121.15;36.17;;;;;;;0.91;100.00;100782.50;5058257;28;20027;-70
2023/01/27 02:58:30;;;;;;;111.75;35.88;;;;;;;0.93;100.00;100783.66;5093381;28;20023;-70
2023/01/27 03:00:55;;;;;;;113.65;38.00;;;;;;;0.93;100.00;100785.66;5093283;28;20396;-70
2023/01/27 03:03:21;;;;;;;112.90;36.70;;;;;;;0.91;100.00;100783.25;5092988;28;20135;-71
2023/01/27 03:05:47;;;;;;;131.15;38.33;;;;;;;0.93;100.00;100777.22;5092842;28;20380;-69
2023/01/27 03:08:12;;;;;;;114.85;37.25;;;;;;;0.96;100.00;100785.63;5094379;28;20016;-70
2023/01/27 03:10:37;;;;;;;118.53;39.15;;;;;;;0.92;100.00;100792.50;5096569;28;20020;-68
2023/01/27 03:13:03;;;;;;;109.32;36.45;;;;;;;0.90;100.00;100781.69;5078354;28;20108;-70
2023/01/27 03:18:14;;;;;;;120.40;37.38;;;;;;;0.98;100.00;100768.34;5096658;28;20400;-69
2023/01/27 03:20:45;;;;;;;112.95;36.53;;;;;;;1.02;100.00;100781.16;5096743;28;20024;-70
2023/01/27 03:23:12;;;;;;;120.20;38.60;;;;;;;1.04;100.00;100784.38;5096231;28;20099;-70
2023/01/27 03:25:45;;;;;;;117.95;37.80;;;;;;;1.00;100.00;100780.00;5096626;28;20408;-70
2023/01/27 03:28:11;;;;;;;128.60;39.95;;;;;;;1.03;100.00;100782.75;5096169;28;20487;-71
2023/01/27 03:30:37;;;;;;;116.97;40.80;;;;;;;1.03;100.00;100785.56;5096312;28;20028;-70
2023/01/27 03:33:04;;;;;;;126.32;38.03;;;;;;;1.01;100.00;100779.56;5096166;28;20111;-70
2023/01/27 03:35:33;;;;;;;122.65;37.10;;;;;;;0.93;100.00;100772.41;5095904;28;20110;-70
2023/01/27 03:46:19;;;;;;;103.93;36.65;;;;;;;1.03;100.00;100787.59;5096231;28;20051;-70
2023/01/27 03:48:49;;;;;;;111.80;36.00;;;;;;;1.08;100.00;100784.31;5096135;28;20020;-70
2023/01/27 03:51:15;;;;;;;110.97;37.38;;;;;;;1.07;100.00;100782.72;5096105;28;20032;-69
2023/01/27 03:53:41;;;;;;;109.68;36.13;;;;;;;1.04;100.00;100787.19;5095684;28;20031;-70
2023/01/27 03:56:07;;;;;;;134.77;39.33;;;;;;;1.03;100.00;100779.16;5095807;28;20110;-70
2023/01/27 03:58:36;;;;;;;115.40;38.60;;;;;;;1.01;100.00;100778.75;5095819;28;20020;-70
2023/01/27 04:01:04;;;;;;;110.38;36.70;;;;;;;1.05;100.00;100779.53;5077607;28;20472;-70
2023/01/27 04:09:04;;;;;;;109.00;34.88;;;;;;;1.07;100.00;100788.34;5080377;28;20047;-70
2023/01/27 04:14:14;;;;;;;98.25;37.15;;;;;;;1.18;100.00;100788.25;5096273;28;20089;-70
2023/01/27 04:16:40;;;;;;;100.88;34.63;;;;;;;1.13;100.00;100786.69;5096062;28;20451;-71
2023/01/27 04:19:06;;;;;;;114.15;37.30;;;;;;;1.14;100.00;100781.88;5094958;28;20020;-70
2023/01/27 04:21:33;;;;;;;116.47;37.08;;;;;;;1.18;100.00;100777.81;5095227;28;20028;-70
2023/01/27 04:23:58;;;;;;;101.10;35.80;;;;;;;1.22;100.00;100787.00;5095234;28;20024;-71
2023/01/27 04:26:24;;;;;;;109.60;36.22;;;;;;;1.16;100.00;100791.47;5076947;28;20028;-71
2023/01/27 04:28:49;;;;;;;120.22;38.00;;;;;;;1.18;100.00;100793.88;5095139;28;20116;-71
2023/01/27 04:31:15;;;;;;;119.03;39.17;;;;;;;1.17;100.00;100789.47;5095213;28;20030;-71
2023/01/27 04:33:42;;;;;;;113.13;38.35;;;;;;;1.12;100.00;100787.91;5095244;28;20031;-70
2023/01/27 04:36:08;;;;;;;120.28;38.65;;;;;;;1.07;100.00;100788.34;5095045;28;20054;-70
2023/01/27 04:38:33;;;;;;;128.52;39.90;;;;;;;1.04;100.00;100794.81;5095202;28;20028;-70
2023/01/27 04:40:59;;;;;;;125.60;41.58;;;;;;;1.05;100.00;100787.97;5095157;28;20510;-70
2023/01/27 04:43:24;;;;;;;119.10;42.47;;;;;;;1.12;100.00;100790.72;5077029;28;20084;-70
2023/01/27 04:45:50;;;;;;;116.25;41.42;;;;;;;1.18;100.00;100793.88;5094769;28;20039;-71
2023/01/27 04:48:15;;;;;;;111.63;43.13;;;;;;;1.20;100.00;100786.63;5095118;28;20028;-70
2023/01/27 04:50:40;;;;;;;125.50;44.22;;;;;;;1.21;100.00;100791.03;5094843;28;20502;-71
2023/01/27 04:53:06;;;;;;;126.18;44.58;;;;;;;1.21;100.00;100791.03;5095010;28;20036;-71
2023/01/27 04:55:31;;;;;;;122.50;43.05;;;;;;;1.23;100.00;100794.22;5094844;28;20027;-70
2023/01/27 04:57:56;;;;;;;144.57;49.80;;;;;;;1.24;100.00;100797.84;5094574;28;20478;-70
2023/01/27 05:00:22;;;;;;;132.35;48.67;;;;;;;1.19;100.00;100792.66;5094552;28;20042;-71
2023/01/27 05:02:47;;;;;;;140.10;46.38;;;;;;;1.22;100.00;100800.28;5094691;28;20024;-70
2023/01/27 05:05:13;;;;;;;149.13;49.40;;;;;;;1.24;100.00;100795.03;5094434;28;20024;-72
2023/01/27 05:07:39;;;;;;;101.72;35.15;;;;;;;1.25;100.00;100797.44;5094332;28;20035;-69
2023/01/27 05:10:05;;;;;;;72.30;24.30;;;;;;;1.25;100.00;100796.63;5094346;28;20028;-70
2023/01/27 05:12:31;;;;;;;61.30;23.77;;;;;;;1.25;100.00;100793.81;5094532;28;20028;-70
2023/01/27 05:14:56;;;;;;;56.58;18.77;;;;;;;1.24;100.00;100798.66;5094833;28;20357;-70
2023/01/27 05:17:22;;;;;;;56.50;19.50;;;;;;;1.30;100.00;100813.06;5094465;28;20119;-70
2023/01/27 05:19:47;;;;;;;73.70;27.88;;;;;;;1.28;100.00;100813.50;5094522;28;20062;-70
2023/01/27 05:22:12;;;;;;;56.03;19.38;;;;;;;1.28;100.00;100810.66;5059414;28;20027;-72
2023/01/27 05:24:38;;;;;;;61.88;20.00;;;;;;;1.35;100.00;100816.25;5094876;28;20027;-71
2023/01/27 05:27:04;;;;;;;55.97;18.75;;;;;;;1.35;100.00;100819.06;5094285;28;20069;-71
2023/01/27 05:29:30;;;;;;;57.63;21.30;;;;;;;1.35;100.00;100816.25;5094363;28;20032;-70
2023/01/27 05:31:56;;;;;;;68.25;24.25;;;;;;;1.35;100.00;100829.50;5092915;28;20061;-71
2023/01/27 05:34:22;;;;;;;71.20;23.23;;;;;;;1.31;100.00;100818.28;5093946;28;20432;-70
2023/01/27 05:36:48;;;;;;;72.05;24.63;;;;;;;1.39;100.00;100831.09;5072468;28;20087;-72
2023/01/27 05:39:15;;;;;;;71.90;26.65;;;;;;;1.42;100.00;100823.81;5068942;28;20044;-71
2023/01/27 05:41:42;;;;;;;68.82;23.02;;;;;;;1.41;100.00;100823.00;5055882;28;20563;-72
2023/01/27 05:44:10;;;;;;;68.30;21.10;;;;;;;1.45;100.00;100832.19;5072431;28;20027;-72
2023/01/27 05:46:38;;;;;;;57.17;20.83;;;;;;;1.45;100.00;100832.19;5055859;28;20442;-72
2023/01/27 05:49:08;;;;;;;62.47;21.02;;;;;;;1.41;100.00;100837.06;5073672;28;20111;-72
2023/01/27 05:51:38;;;;;;;62.30;22.33;;;;;;;1.38;100.00;100837.13;5073904;28;20028;-71
2023/01/27 05:54:06;;;;;;;49.28;20.63;;;;;;;1.38;100.00;100832.28;5072226;28;20039;-68
2023/01/27 05:56:33;;;;;;;54.28;19.85;;;;;;;1.37;100.00;100835.50;5072294;28;20028;-70
2023/01/27 05:58:59;;;;;;;56.08;21.27;;;;;;;1.35;100.00;100841.56;5072208;28;20089;-69
2023/01/27 06:01:30;;;;;;;59.72;19.60;;;;;;;1.31;100.00;100845.63;5073722;28;20369;-70
2023/01/27 06:03:56;;;;;;;;;;;;;;;1.32;100.00;100848.03;5055944;28;20481;-68
2023/01/27 06:06:24;;;;;;;61.75;20.02;;;;;;;1.37;100.00;100847.56;5072623;28;19912;-71
2023/01/27 06:08:51;;;;;;;63.58;21.15;;;;;;;1.43;100.00;100853.56;5073405;28;20461;-70
2023/01/27 06:11:21;;;;;;;52.13;18.95;;;;;;;1.43;100.00;100848.72;5072095;28;20081;-71
2023/01/27 06:13:47;;;;;;;56.47;21.92;;;;;;;1.35;100.00;100838.75;5072417;28;20032;-72
2023/01/27 06:16:16;;;;;;;59.65;20.42;;;;;;;1.39;100.00;100853.59;5073389;28;20036;-72
2023/01/27 06:18:42;;;;;;;55.78;19.40;;;;;;;1.38;100.00;100857.63;5073261;28;20046;-70
2023/01/27 06:21:11;;;;;;;57.15;21.00;;;;;;;1.39;100.00;100861.25;5072016;28;20033;-70
2023/01/27 06:23:38;;;;;;;62.30;21.10;;;;;;;1.42;100.00;100863.22;5072316;28;20036;-72
2023/01/27 06:26:15;;;;;;;60.95;21.73;;;;;;;1.36;100.00;100853.63;5071934;28;20036;-72
2023/01/27 06:28:42;;;;;;;58.92;22.38;;;;;;;1.35;100.00;100858.47;5073408;28;20127;-72
2023/01/27 06:31:17;;;;;;;54.75;20.40;;;;;;;1.22;100.00;100862.19;5071887;28;20045;-72
2023/01/27 06:33:44;;;;;;;49.67;19.05;;;;;;;1.20;100.00;100857.00;5073369;28;20032;-71
2023/01/27 06:36:18;;;;;;;46.35;17.02;;;;;;;1.17;100.00;100866.25;5071854;28;20060;-72
2023/01/27 06:38:45;;;;;;;53.00;19.00;;;;;;;1.11;100.00;100869.94;5072947;28;20376;-70
2023/01/27 06:41:11;;;;;;;53.60;20.00;;;;;;;1.17;100.00;100865.44;5071909;28;20116;-68
2023/01/27 06:43:39;;;;;;;51.85;19.50;;;;;;;1.21;100.00;100864.19;5057965;28;20040;-69
2023/01/27 06:46:13;;;;;;;61.20;18.88;;;;;;;1.33;100.00;100869.34;5058638;28;20039;-69
2023/01/27 06:48:40;;;;;;;55.55;20.17;;;;;;;1.34;100.00;100878.59;5076694;28;20082;-70
2023/01/27 06:51:07;;;;;;;54.17;20.05;;;;;;;1.20;100.00;100875.91;5075824;28;20032;-70
2023/01/27 06:53:33;;;;;;;56.95;20.70;;;;;;;1.14;100.00;100871.91;5075437;28;20036;-71
2023/01/27 06:56:00;;;;;;;62.42;22.55;;;;;;;1.16;100.00;100866.69;5075684;28;20136;-71
2023/01/27 06:58:31;;;;;;;60.35;22.85;;;;;;;1.26;100.00;100874.22;5076951;28;20036;-69
2023/01/27 07:00:59;;;;;;;74.35;23.90;;;;;;;1.30;100.00;100861.72;5059497;28;20116;-69
2023/01/27 07:03:44;;;;;;;62.80;23.42;;;;;;;1.21;100.00;100861.38;5076657;28;20389;-70
2023/01/27 07:06:10;;;;;;;71.75;23.00;;;;;;;1.22;100.00;100865.00;5075244;28;20098;-73
2023/01/27 07:08:37;;;;;;;69.72;22.00;;;;;;;1.24;100.00;100871.03;5076371;28;20086;-73
2023/01/27 07:11:04;;;;;;;62.83;22.45;;;;;;;1.24;100.00;100862.59;5075115;28;20044;-72
2023/01/27 07:13:30;;;;;;;69.85;24.05;;;;;;;1.30;100.00;100870.19;5058600;28;20568;-71
2023/01/27 07:15:59;;;;;;;64.45;21.08;;;;;;;1.33;100.00;100869.34;5076379;28;20107;-74
2023/01/27 07:18:26;;;;;;;75.45;22.95;;;;;;;1.25;100.00;100873.44;5076555;28;20081;-72
2023/01/27 07:20:52;;;;;;;59.78;21.90;;;;;;;1.21;100.00;100872.66;5076090;28;20029;-73
2023/01/27 07:23:19;;;;;;;66.57;21.08;;;;;;;1.16;100.00;100869.50;5075226;28;20029;-73
2023/01/27 07:25:45;;;;;;;68.93;21.17;;;;;;;1.14;100.00;100878.34;5075918;28;20036;-72
2023/01/27 07:28:12;;;;;;;69.63;21.23;;;;;;;1.16;100.00;100873.09;5074823;28;20044;-73
2023/01/27 07:30:38;;;;;;;83.82;24.27;;;;;;;1.20;100.00;100882.31;5058188;28;20020;-73
2023/01/27 07:33:09;;;;;;;64.50;22.30;;;;;;;1.19;100.00;100886.34;5076330;28;20021;-75
2023/01/27 07:35:37;;;;;;;69.75;21.17;;;;;;;1.17;100.00;100880.31;5076598;28;20110;-74
2023/01/27 07:38:05;;;;;;;63.92;20.77;;;;;;;1.18;100.00;100881.13;5096381;28;20054;-73
2023/01/27 07:40:32;;;;;;;69.88;23.58;;;;;;;1.15;100.00;100884.78;5096205;28;20036;-73
2023/01/27 07:43:00;;;;;;;63.53;22.35;;;;;;;1.13;100.00;100890.00;5078009;28;20483;-73
2023/01/27 07:45:40;;;;;;;74.90;24.10;;;;;;;1.17;100.00;100894.41;5077962;28;20350;-73
2023/01/27 07:48:08;;;;;;;66.20;20.48;;;;;;;1.21;100.00;100900.00;5077934;28;20035;-74
2023/01/27 07:50:42;;;;;;;76.07;23.08;;;;;;;1.19;100.00;100891.19;5078139;28;20553;-73
2023/01/27 07:53:09;;;;;;;74.53;22.30;;;;;;;1.20;100.00;100887.97;5078647;28;20132;-73
2023/01/27 07:55:36;;;;;;;72.63;22.20;;;;;;;1.19;100.00;100889.16;5076541;28;20075;-74
2023/01/27 07:58:02;;;;;;;66.38;21.70;;;;;;;1.19;100.00;100891.97;5077517;28;20036;-74
2023/01/27 08:00:43;;;;;;;76.25;20.95;;;;;;;1.27;100.00;100893.50;5096054;28;20039;-74
2023/01/27 08:03:26;;;;;;;72.45;21.55;;;;;;;1.40;100.00;100896.63;5061163;28;20027;-73
2023/01/27 08:05:54;;;;;;;72.03;25.77;;;;;;;1.44;100.00;100894.59;5078209;28;20020;-74
2023/01/27 08:08:19;;;;;;;72.43;21.38;;;;;;;1.45;100.00;100896.19;5086900;28;20570;-73
2023/01/27 08:10:50;;;;;;;66.57;25.05;;;;;;;1.51;100.00;100891.69;5087534;28;20052;-74
2023/01/27 08:13:15;;;;;;;78.95;22.80;;;;;;;1.56;100.00;100888.41;5085739;28;20033;-74
2023/01/27 08:15:42;;;;;;;68.03;20.40;;;;;;;1.58;100.00;100886.00;5053365;28;20039;-73
2023/01/27 08:18:08;;;;;;;67.47;19.73;;;;;;;1.52;100.00;100889.66;5087907;28;20066;-74
2023/01/27 08:20:33;;;;;;;63.60;21.63;;;;;;;1.58;100.00;100894.44;5065130;28;20476;-74
2023/01/27 08:22:59;;;;;;;64.40;19.77;;;;;;;1.68;100.00;100895.56;5079167;28;20457;-75
2023/01/27 08:25:25;;;;;;;60.75;19.98;;;;;;;1.69;100.00;100894.34;5056349;28;20922;-74
2023/01/27 08:27:52;;;;;;;66.22;18.80;;;;;;;1.71;100.00;100892.69;5039862;28;20124;-77
2023/01/27 08:30:19;;;;;;;64.15;18.75;;;;;;;1.81;100.00;100899.44;5039815;28;20036;-75
2023/01/27 08:32:44;;;;;;;65.57;21.25;;;;;;;1.79;100.00;100897.06;5074425;28;20036;-75
2023/01/27 08:35:11;;;;;;;53.30;18.23;;;;;;;1.71;100.00;100901.16;5073967;28;20035;-75
2023/01/27 08:37:38;;;;;;;52.00;18.10;;;;;;;1.50;100.00;100904.19;5074128;28;20398;-75
2023/01/27 08:40:05;;;;;;;58.60;16.77;;;;;;;1.41;100.00;100901.03;5073537;28;20029;-76
2023/01/27 08:42:32;;;;;;;48.80;17.67;;;;;;;1.40;100.00;100902.25;5074155;28;20115;-74
2023/01/27 08:44:59;;;;;;;51.38;18.23;;;;;;;1.30;100.00;100911.59;5074245;28;20078;-76
2023/01/27 08:47:25;;;;;;;49.03;17.10;;;;;;;1.22;100.00;100913.66;5055656;28;20371;-75
2023/01/27 08:49:53;;;;;;;52.10;17.35;;;;;;;1.22;100.00;100908.03;5039754;28;20472;-76
2023/01/27 08:52:21;;;;;;;50.67;17.27;;;;;;;1.22;100.00;100918.47;5074252;28;20477;-75
2023/01/27 08:54:48;;;;;;;50.70;18.65;;;;;;;1.19;100.00;100917.31;5056360;28;20025;-76
2023/01/27 08:57:14;;;;;;;71.47;23.42;;;;;;;1.23;100.00;100915.25;5073652;28;20040;-75
2023/01/27 08:59:39;;;;;;;123.05;40.85;;;;;;;1.31;100.00;100921.63;5085062;28;20032;-77
2023/01/27 09:02:04;;;;;;;154.38;52.60;;;;;;;1.35;100.00;100922.41;5093682;28;20445;-75
2023/01/27 09:04:30;;;;;;;160.52;54.72;;;;;;;1.33;100.00;100922.81;5074668;28;20028;-78
2023/01/27 09:07:02;;;;;;;167.48;56.08;;;;;;;1.29;100.00;100918.44;5093956;28;20059;-75
2023/01/27 09:09:28;;;;;;;;;;;;;;;1.24;100.00;100921.69;5076453;28;20032;-75
2023/01/27 09:11:54;;;;;;;177.93;60.85;;;;;;;1.18;100.00;100926.16;5094173;28;19935;-77
2023/01/27 09:14:21;;;;;;;198.90;60.22;;;;;;;1.14;100.00;100929.00;5094476;28;20063;-76
2023/01/27 09:16:46;;;;;;;197.77;63.25;;;;;;;1.12;100.00;100931.41;5095220;28;20052;-79
2023/01/27 09:19:13;;;;;;;188.48;59.17;;;;;;;1.07;100.00;100940.28;5094884;28;20058;-79
2023/01/27 09:21:46;;;;;;;194.57;63.28;;;;;;;0.96;100.00;100920.66;5102008;28;20051;-78
2023/01/27 09:24:16;;;;;;;194.23;60.30;;;;;;;1.14;100.00;100939.47;5101323;28;20032;-80
2023/01/27 09:26:42;;;;;;;205.93;62.25;;;;;;;1.14;100.00;100943.06;5095453;28;20026;-79
2023/01/27 09:29:08;;;;;;;176.60;58.38;;;;;;;1.16;100.00;100948.31;5059525;28;20122;-78
2023/01/27 09:31:33;;;;;;;198.32;61.67;;;;;;;1.15;100.00;100955.13;5042917;28;20040;-77
2023/01/27 09:33:59;;;;;;;199.68;59.00;;;;;;;1.13;100.00;100955.53;5093263;28;20044;-77
2023/01/27 09:36:25;;;;;;;177.10;61.80;;;;;;;1.09;100.00;100956.78;5093941;28;20093;-78
2023/01/27 09:38:54;;;;;;;193.38;61.65;;;;;;;1.04;100.00;100947.56;5094344;28;20117;-77
2023/01/27 09:41:51;;;;;;;188.32;60.08;;;;;;;1.11;100.00;100957.94;5093809;28;20449;-76
2023/01/27 09:44:43;;;;;;;169.00;57.72;;;;;;;1.11;100.00;100960.00;5093827;28;20473;-76
2023/01/27 09:47:29;;;;;;;183.48;59.05;;;;;;;1.14;100.00;100965.59;5094027;28;20081;-74
2023/01/27 09:50:14;;;;;;;184.15;56.08;;;;;;;1.18;100.00;100969.19;5093835;28;20034;-75
2023/01/27 09:53:15;;;;;;;166.55;54.17;;;;;;;1.19;100.00;100967.16;5093966;28;20057;-74
2023/01/27 09:55:49;;;;;;;168.65;53.65;;;;;;;1.13;100.00;100963.97;5093716;28;20051;-73
2023/01/27 09:58:52;;;;;;;141.48;49.28;;;;;;;1.14;100.00;100965.59;5093894;28;20073;-74
2023/01/27 10:01:37;;;;;;;149.98;48.38;;;;;;;1.21;100.00;100957.06;5072168;28;20028;-71
2023/01/27 10:04:26;;;;;;;141.82;47.40;;;;;;;1.20;100.00;100955.50;5093628;28;20121;-73
2023/01/27 10:07:29;;;;;;;134.60;46.42;;;;;;;1.19;100.00;100953.91;5093714;28;20028;-72
2023/01/27 10:10:22;;;;;;;116.60;42.75;;;;;;;1.17;100.00;100953.50;5093594;28;20016;-71
2023/01/27 10:13:16;;;;;;;124.47;44.53;;;;;;;1.21;100.00;100951.44;5042032;28;20086;-71
2023/01/27 10:16:08;;;;;;;118.65;44.63;;;;;;;1.24;100.00;100945.00;5093252;28;20507;-70
2023/01/27 10:18:39;;;;;;;115.93;47.28;;;;;;;1.37;100.00;100945.31;5065648;28;20411;-76
2023/01/27 10:21:49;;;;;;;116.63;46.10;;;;;;;1.39;100.00;100940.88;5077394;28;20052;-82
2023/01/27 10:24:37;;;;;;;117.53;44.10;;;;;;;1.44;100.00;100950.91;5059237;28;20044;-70
2023/01/27 10:27:21;;;;;;;124.88;43.25;;;;;;;1.51;100.00;100947.19;5077355;28;20020;-71
2023/01/27 10:30:19;;;;;;;112.63;43.65;;;;;;;1.64;100.00;100948.31;5059262;28;20029;-71
2023/01/27 10:32:46;;;;;;;111.78;40.58;;;;;;;1.61;100.00;100954.75;5076472;28;20036;-70
2023/01/27 10:35:19;;;;;;;93.38;36.83;;;;;;;1.52;100.00;100954.44;5076908;28;20025;-70
2023/01/27 10:38:17;;;;;;;88.18;37.28;;;;;;;1.42;100.00;100951.31;5058965;28;20124;-69
2023/01/27 10:41:06;;;;;;;90.32;34.70;;;;;;;1.37;100.00;100948.13;5076956;28;20052;-70
2023/01/27 10:43:53;;;;;;;86.47;35.45;;;;;;;1.33;100.00;100953.78;5061786;28;20473;-69
2023/01/27 10:46:38;;;;;;;91.45;34.35;;;;;;;1.31;100.00;100953.38;5076641;28;20032;-70
2023/01/27 10:49:10;;;;;;;85.07;32.70;;;;;;;1.35;100.00;100957.00;5072757;28;20115;-71
2023/01/27 10:51:44;;;;;;;93.75;36.58;;;;;;;1.36;100.00;100954.97;5059517;28;20078;-68
2023/01/27 10:54:14;;;;;;;70.72;30.60;;;;;;;1.39;100.00;100960.59;5025985;28;20033;-71
2023/01/27 10:56:53;;;;;;;84.80;33.58;;;;;;;1.44;100.00;100957.31;5071090;28;20044;-69
2023/01/27 10:59:37;;;;;;;99.13;34.15;;;;;;;1.45;100.00;100966.59;5079035;28;20097;-70
2023/01/27 11:02:25;;;;;;;108.85;38.55;;;;;;;1.47;100.00;100958.50;5062098;28;20031;-72
2023/01/27 11:04:59;;;;;;;113.15;40.33;;;;;;;1.48;100.00;100954.47;5079223;28;20111;-70
2023/01/27 11:07:25;;;;;;;122.13;39.50;;;;;;;1.48;100.00;100957.28;5078692;28;20032;-70
2023/01/27 11:09:55;;;;;;;119.70;38.88;;;;;;;1.43;100.00;100952.91;5096868;28;20024;-70
2023/01/27 11:12:36;;;;;;;102.72;36.80;;;;;;;1.51;100.00;100958.47;5079632;28;20052;-71
2023/01/27 11:15:26;;;;;;;112.55;37.80;;;;;;;1.52;100.00;100957.25;5078815;28;20046;-70
2023/01/27 11:17:57;;;;;;;107.82;37.38;;;;;;;1.51;100.00;100952.81;5078371;28;20528;-72
2023/01/27 11:20:29;;;;;;;115.13;39.20;;;;;;;1.48;100.00;100951.66;5078245;28;20119;-72
2023/01/27 11:23:19;;;;;;;109.40;36.92;;;;;;;1.43;100.00;100952.91;5078746;28;20101;-70
2023/01/27 11:26:14;;;;;;;112.75;39.75;;;;;;;1.38;100.00;100947.72;5061616;28;20036;-71
2023/01/27 11:28:44;;;;;;;106.15;37.95;;;;;;;1.33;100.00;100947.34;5096106;28;20028;-70
2023/01/27 11:31:31;;;;;;;121.15;39.80;;;;;;;1.27;100.00;100944.19;5096453;28;20112;-70
2023/01/27 11:34:05;;;;;;;121.20;40.53;;;;;;;1.20;100.00;100943.44;5096159;28;20384;-70
2023/01/27 11:36:32;;;;;;;112.45;39.88;;;;;;;1.14;100.00;100945.88;5074507;28;20056;-69
2023/01/27 11:39:00;;;;;;;117.10;41.40;;;;;;;1.07;100.00;100947.94;5058310;28;20074;-70
2023/01/27 11:41:26;;;;;;;123.85;41.10;;;;;;;1.11;100.00;100951.56;5075653;28;20090;-69
2023/01/27 11:43:52;;;;;;;139.27;42.55;;;;;;;1.15;100.00;100952.31;5074224;28;20044;-70
2023/01/27 11:46:22;;;;;;;125.80;40.63;;;;;;;1.09;100.00;100949.13;5072719;28;20052;-70
2023/01/27 11:48:59;;;;;;;141.57;44.42;;;;;;;1.03;100.00;100945.97;5058062;28;20040;-71